Time;durP1;ratioP1;P1;durP2;ratioP2;P2;SDS_P1;SDS_P2;PMS_P1;PMS_P2;Temp;Humidity;BMP_temperature;BMP_pressure;BME280_temperature;BME280_humidity;BME280_pressure;Samples;Min_cycle;Max_cycle;Signal;HPM_P1;HPM_P2
2024/03/27 00:01:36;;;;;;;7.40;6.10;;;12.30;97.70;;;;;;4948963;29;20189;-84
2024/03/27 00:04:02;;;;;;;7.07;5.67;;;12.20;97.80;;;;;;4942483;29;20208;-85
2024/03/27 00:06:27;;;;;;;6.60;5.57;;;12.10;97.70;;;;;;4944772;28;20223;-84
2024/03/27 00:08:53;;;;;;;7.17;5.87;;;12.40;97.70;;;;;;4943554;29;20205;-83
2024/03/27 00:11:20;;;;;;;6.17;5.57;;;11.50;97.20;;;;;;4944777;28;20188;-83
2024/03/27 00:13:46;;;;;;;6.55;5.53;;;12.00;97.50;;;;;;4942958;29;20193;-85
2024/03/27 00:16:11;;;;;;;6.30;5.70;;;12.40;97.70;;;;;;4942365;28;20209;-85
2024/03/27 00:18:37;;;;;;;5.60;4.87;;;12.20;97.50;;;;;;4948156;28;20757;-84
2024/03/27 00:21:02;;;;;;;5.40;4.90;;;12.40;97.10;;;;;;4940107;29;20757;-84
2024/03/27 00:23:28;;;;;;;5.20;4.70;;;12.20;96.70;;;;;;4943067;28;20217;-85
2024/03/27 00:25:58;;;;;;;6.90;5.23;;;12.50;96.50;;;;;;4944533;29;20215;-84
2024/03/27 00:28:24;;;;;;;7.40;5.35;;;12.70;96.40;;;;;;4944546;29;20188;-84
2024/03/27 00:30:49;;;;;;;10.17;4.80;;;12.30;96.00;;;;;;4945595;28;20188;-84
2024/03/27 00:33:15;;;;;;;6.10;4.87;;;12.30;96.30;;;;;;4945570;29;20219;-85
2024/03/27 00:35:42;;;;;;;6.37;4.57;;;12.30;96.10;;;;;;4944690;28;20189;-84
2024/03/27 00:38:08;;;;;;;5.80;4.57;;;12.40;96.20;;;;;;4943957;28;20279;-83
2024/03/27 00:40:33;;;;;;;6.50;4.60;;;12.70;96.40;;;;;;4963298;28;20795;-84
2024/03/27 00:42:59;;;;;;;4.90;4.40;;;12.10;95.90;;;;;;4944849;28;20479;-83
2024/03/27 00:45:24;;;;;;;4.87;4.47;;;12.50;96.70;;;;;;4939309;28;20184;-84
2024/03/27 00:47:50;;;;;;;6.33;5.57;;;12.40;96.70;;;;;;4944937;28;20220;-83
2024/03/27 00:50:15;;;;;;;5.13;4.53;;;12.50;96.20;;;;;;4943984;29;20169;-84
2024/03/27 00:52:41;;;;;;;9.47;6.20;;;12.20;95.90;;;;;;4943663;28;20181;-83
2024/03/27 00:55:07;;;;;;;7.73;4.80;;;12.50;96.10;;;;;;4940047;28;20263;-83
2024/03/27 00:57:32;;;;;;;5.67;5.13;;;12.60;96.00;;;;;;4940536;28;20238;-83
2024/03/27 01:00:01;;;;;;;5.30;4.30;;;12.80;96.30;;;;;;4945509;29;20455;-83
2024/03/27 01:02:27;;;;;;;4.97;4.50;;;12.00;96.20;;;;;;4942035;28;20223;-83
2024/03/27 01:04:53;;;;;;;4.87;4.37;;;12.40;96.50;;;;;;4944108;29;20697;-84
2024/03/27 01:07:18;;;;;;;5.73;4.50;;;12.60;96.60;;;;;;4944528;29;20200;-84
2024/03/27 01:09:44;;;;;;;4.93;4.43;;;12.40;96.60;;;;;;4947839;28;20196;-83
2024/03/27 01:12:09;;;;;;;7.40;6.43;;;12.30;96.60;;;;;;4945629;28;20698;-84
2024/03/27 01:14:35;;;;;;;5.40;4.50;;;12.40;96.80;;;;;;4948664;28;20184;-84
2024/03/27 01:17:01;;;;;;;4.80;4.40;;;12.30;96.70;;;;;;4940913;29;20240;-84
2024/03/27 01:19:26;;;;;;;5.70;4.73;;;11.90;96.70;;;;;;4942891;28;20240;-84
2024/03/27 01:21:51;;;;;;;4.73;4.33;;;11.60;96.90;;;;;;4943773;28;20689;-84
2024/03/27 01:24:17;;;;;;;6.23;4.63;;;11.90;97.50;;;;;;4941883;28;20219;-83
2024/03/27 01:26:43;;;;;;;4.80;4.30;;;12.10;97.70;;;;;;4942039;28;20299;-83
2024/03/27 01:29:08;;;;;;;5.57;4.50;;;12.10;98.30;;;;;;4940884;28;20691;-84
2024/03/27 01:31:34;;;;;;;5.60;4.77;;;11.10;97.90;;;;;;4961788;28;20187;-84
2024/03/27 01:33:59;;;;;;;5.30;4.80;;;11.80;98.30;;;;;;4941305;28;20193;-84
2024/03/27 01:36:24;;;;;;;7.07;4.70;;;11.50;98.20;;;;;;4943590;28;20215;-84
2024/03/27 01:38:50;;;;;;;5.33;4.50;;;11.60;98.40;;;;;;4943562;28;20251;-84
2024/03/27 01:41:16;;;;;;;4.50;4.10;;;11.30;98.60;;;;;;4942587;28;20192;-84
2024/03/27 01:43:41;;;;;;;5.77;4.10;;;11.20;99.60;;;;;;4940810;28;20215;-84
2024/03/27 01:46:11;;;;;;;5.17;4.47;;;11.00;99.90;;;;;;4941788;28;20506;-85
2024/03/27 01:48:36;;;;;;;10.23;4.78;;;10.90;99.90;;;;;;4960213;28;20582;-84
2024/03/27 01:51:04;;;;;;;4.93;4.27;;;11.10;99.80;;;;;;4946173;29;20199;-84
2024/03/27 01:53:31;;;;;;;8.90;4.60;;;11.00;99.90;;;;;;4943243;29;20231;-84
2024/03/27 01:55:57;;;;;;;5.60;4.25;;;10.40;99.90;;;;;;4943953;28;20212;-83
2024/03/27 01:58:23;;;;;;;5.50;4.47;;;10.60;99.90;;;;;;4959036;28;20378;-85
2024/03/27 02:00:49;;;;;;;6.22;4.82;;;10.40;99.90;;;;;;4943634;28;20534;-84
2024/03/27 02:03:14;;;;;;;5.83;4.93;;;10.50;99.90;;;;;;4941381;28;20219;-84
2024/03/27 02:05:40;;;;;;;4.87;3.60;;;10.40;99.90;;;;;;4940643;28;20588;-82
2024/03/27 02:08:06;;;;;;;5.68;4.68;;;10.80;99.90;;;;;;4957740;28;20230;-84
2024/03/27 02:10:32;;;;;;;4.83;4.40;;;10.60;99.90;;;;;;4942073;28;20187;-83
2024/03/27 02:12:57;;;;;;;5.57;4.20;;;10.40;99.90;;;;;;4959313;28;20210;-83
2024/03/27 02:15:23;;;;;;;9.33;4.27;;;10.50;99.90;;;;;;4941817;29;20294;-83
2024/03/27 02:17:48;;;;;;;4.13;3.73;;;10.50;99.90;;;;;;4942509;28;20210;-83
2024/03/27 02:20:14;;;;;;;6.17;4.80;;;10.50;99.90;;;;;;4941005;28;20196;-83
2024/03/27 02:22:39;;;;;;;4.20;3.80;;;10.30;99.90;;;;;;4958779;28;20269;-83
2024/03/27 02:25:22;;;;;;;6.90;4.23;;;10.50;99.90;;;;;;4943119;28;20553;-83
2024/03/27 02:27:48;;;;;;;4.85;4.40;;;10.50;99.90;;;;;;4948902;28;20202;-83
2024/03/27 02:30:14;;;;;;;6.47;4.38;;;10.30;99.90;;;;;;4946419;28;20187;-83
2024/03/27 02:32:39;;;;;;;5.37;4.13;;;10.20;99.90;;;;;;4963740;28;20192;-83
2024/03/27 02:35:05;;;;;;;5.37;4.43;;;9.90;99.90;;;;;;4943796;28;20188;-82
2024/03/27 02:37:31;;;;;;;5.43;4.93;;;10.10;99.90;;;;;;4944924;28;20245;-83
2024/03/27 02:39:56;;;;;;;5.30;4.30;;;10.30;99.90;;;;;;4947792;28;20428;-84
2024/03/27 02:42:22;;;;;;;4.83;4.33;;;10.00;99.90;;;;;;4946748;28;20199;-83
2024/03/27 02:48:12;;;;;;;6.20;4.68;;;9.90;99.90;;;;;;4871795;29;20226;-83
2024/03/27 02:50:38;;;;;;;6.03;4.90;;;9.10;99.90;;;;;;4938770;28;20187;-83
2024/03/27 02:53:03;;;;;;;6.13;4.80;;;9.80;99.90;;;;;;4946643;29;20458;-83
2024/03/27 02:55:29;;;;;;;4.60;4.20;;;10.10;99.90;;;;;;4946157;28;20203;-83
2024/03/27 02:57:54;;;;;;;5.80;5.13;;;9.70;99.90;;;;;;4947445;28;20200;-83
2024/03/27 03:00:20;;;;;;;6.23;4.90;;;9.60;99.90;;;;;;4941704;29;20194;-82
2024/03/27 03:02:45;;;;;;;4.97;4.20;;;9.60;99.90;;;;;;4940510;28;20301;-83
2024/03/27 03:05:11;;;;;;;5.30;4.60;;;9.90;99.90;;;;;;4943978;28;20229;-84
2024/03/27 03:07:36;;;;;;;4.70;4.03;;;9.60;99.90;;;;;;4944751;28;20217;-83
2024/03/27 03:10:03;;;;;;;4.80;4.30;;;9.60;99.90;;;;;;4961744;28;20267;-82
2024/03/27 03:12:29;;;;;;;4.32;3.95;;;9.30;99.90;;;;;;4938761;29;20294;-83
2024/03/27 03:14:55;;;;;;;4.97;3.90;;;9.80;99.90;;;;;;4942458;28;21637;-83
2024/03/27 03:17:20;;;;;;;4.83;4.33;;;9.50;99.90;;;;;;4947102;28;20281;-83
2024/03/27 03:19:46;;;;;;;4.63;4.23;;;9.40;99.90;;;;;;4942794;28;20244;-82
2024/03/27 03:22:11;;;;;;;6.93;4.83;;;9.60;99.90;;;;;;4960745;28;20195;-83
2024/03/27 03:24:37;;;;;;;6.50;4.50;;;9.40;99.90;;;;;;4939743;28;20213;-82
2024/03/27 03:27:02;;;;;;;4.30;3.90;;;9.40;99.90;;;;;;4946284;29;20206;-83
2024/03/27 03:29:28;;;;;;;5.20;4.63;;;9.30;99.90;;;;;;4940751;28;20254;-82
2024/03/27 03:31:55;;;;;;;5.03;4.50;;;9.60;99.90;;;;;;4943769;28;20189;-83
2024/03/27 03:34:21;;;;;;;4.07;3.78;;;9.30;99.90;;;;;;4957369;28;20266;-83
2024/03/27 03:36:47;;;;;;;4.90;4.20;;;9.40;99.90;;;;;;4943375;28;20210;-83
2024/03/27 03:39:12;;;;;;;5.27;4.60;;;9.10;99.90;;;;;;4940961;28;20210;-83
2024/03/27 03:41:38;;;;;;;5.00;4.60;;;9.20;99.90;;;;;;4942845;28;20706;-83
2024/03/27 03:44:03;;;;;;;5.20;4.70;;;9.20;99.90;;;;;;4960057;28;20228;-84
2024/03/27 03:46:29;;;;;;;5.90;4.50;;;9.10;99.90;;;;;;4939255;28;20205;-83
2024/03/27 03:48:54;;;;;;;5.40;3.90;;;9.30;99.90;;;;;;4945539;28;20221;-84
2024/03/27 03:51:20;;;;;;;7.33;4.00;;;8.60;99.90;;;;;;4943832;29;20177;-82
2024/03/27 03:53:45;;;;;;;6.47;4.50;;;8.70;99.90;;;;;;4944987;28;20213;-83
2024/03/27 03:56:11;;;;;;;4.83;4.43;;;8.80;99.90;;;;;;4939507;28;20207;-83
2024/03/27 03:58:36;;;;;;;5.17;4.60;;;9.00;99.90;;;;;;4948372;28;20594;-83
2024/03/27 04:01:02;;;;;;;5.60;4.80;;;8.70;99.90;;;;;;4942211;29;20277;-83
2024/03/27 04:03:27;;;;;;;10.10;4.63;;;8.80;99.90;;;;;;4942617;29;20277;-83
2024/03/27 04:05:53;;;;;;;6.23;4.60;;;8.50;99.90;;;;;;4961779;28;20204;-83
2024/03/27 04:08:20;;;;;;;5.80;4.60;;;9.00;99.90;;;;;;4940611;29;20201;-83
2024/03/27 04:10:46;;;;;;;4.93;4.43;;;9.10;99.90;;;;;;4941341;28;20221;-83
2024/03/27 04:13:11;;;;;;;5.20;4.40;;;8.40;99.90;;;;;;4944280;29;20189;-83
2024/03/27 04:15:39;;;;;;;6.20;4.27;;;8.60;99.90;;;;;;4946946;28;20212;-83
2024/03/27 04:18:04;;;;;;;5.00;4.50;;;9.10;99.90;;;;;;4945430;28;20614;-84
2024/03/27 04:20:30;;;;;;;7.23;4.77;;;8.80;99.90;;;;;;4944030;28;20194;-83
2024/03/27 04:22:56;;;;;;;6.00;4.90;;;8.70;99.90;;;;;;4949510;28;20210;-84
2024/03/27 04:25:23;;;;;;;5.10;4.60;;;8.40;99.90;;;;;;4942303;29;20189;-84
2024/03/27 04:27:49;;;;;;;4.68;4.28;;;8.60;99.90;;;;;;4962001;28;20453;-84
2024/03/27 04:30:15;;;;;;;5.53;5.03;;;8.50;99.90;;;;;;4950374;28;20454;-83
2024/03/27 04:32:40;;;;;;;4.97;4.30;;;8.80;99.90;;;;;;4943598;28;20451;-83
2024/03/27 04:35:06;;;;;;;10.03;5.97;;;7.80;99.90;;;;;;4944005;28;20416;-84
2024/03/27 04:37:32;;;;;;;5.70;5.10;;;8.50;99.90;;;;;;4946984;28;20204;-84
2024/03/27 04:39:59;;;;;;;5.97;5.37;;;8.20;99.90;;;;;;4945454;28;20218;-84
2024/03/27 04:42:25;;;;;;;5.50;4.97;;;8.40;99.90;;;;;;4944205;28;20189;-83
2024/03/27 04:44:50;;;;;;;8.20;5.20;;;8.60;99.90;;;;;;4943545;28;20225;-83
2024/03/27 04:47:16;;;;;;;5.50;4.90;;;8.80;99.90;;;;;;4944499;28;20197;-84
2024/03/27 04:49:41;;;;;;;5.40;4.60;;;8.40;99.90;;;;;;4941794;28;20271;-84
2024/03/27 04:52:07;;;;;;;9.07;4.60;;;8.30;99.90;;;;;;4944068;29;20208;-84
2024/03/27 04:54:33;;;;;;;6.30;4.93;;;8.60;99.90;;;;;;4943976;28;20189;-83
2024/03/27 04:56:58;;;;;;;6.13;5.30;;;8.30;99.90;;;;;;4945830;29;20245;-83
2024/03/27 04:59:24;;;;;;;6.87;4.63;;;8.60;99.90;;;;;;4944700;28;20193;-84
2024/03/27 05:01:50;;;;;;;5.37;4.87;;;8.40;99.90;;;;;;4944283;28;20187;-83
2024/03/27 05:04:16;;;;;;;5.87;5.30;;;8.20;99.90;;;;;;4945937;28;20468;-83
2024/03/27 05:06:42;;;;;;;5.87;4.70;;;8.70;99.90;;;;;;4947981;28;20205;-84
2024/03/27 05:09:11;;;;;;;6.47;5.43;;;8.40;99.90;;;;;;4940283;28;20469;-85
2024/03/27 05:11:37;;;;;;;5.07;4.57;;;8.20;99.90;;;;;;4945384;29;20208;-85
2024/03/27 05:14:02;;;;;;;7.10;5.78;;;8.30;99.90;;;;;;4940554;28;21815;-83
2024/03/27 05:16:28;;;;;;;7.13;5.60;;;8.50;99.90;;;;;;4943315;28;20617;-84
2024/03/27 05:18:53;;;;;;;5.70;5.07;;;8.20;99.90;;;;;;4940769;28;20193;-83
2024/03/27 05:21:19;;;;;;;8.10;4.73;;;8.10;99.90;;;;;;4939493;29;20195;-84
2024/03/27 05:23:45;;;;;;;5.70;4.43;;;;;;;;;;4957370;23;20313;-86
2024/03/27 05:26:11;;;;;;;7.73;5.43;;;;;;;;;;4932511;29;20595;-85
2024/03/27 05:28:36;;;;;;;6.67;5.57;;;8.10;99.90;;;;;;4934449;28;20913;-85
2024/03/27 05:31:02;;;;;;;5.87;5.37;;;7.90;99.90;;;;;;4933850;28;20596;-85
2024/03/27 05:33:27;;;;;;;8.40;5.20;;;8.10;99.90;;;;;;4942895;28;20180;-84
2024/03/27 05:35:53;;;;;;;8.07;5.73;;;8.20;99.90;;;;;;4941595;28;20211;-86
2024/03/27 05:38:20;;;;;;;10.00;4.70;;;8.20;99.90;;;;;;4939347;28;20191;-85
2024/03/27 05:40:46;;;;;;;5.10;4.60;;;8.70;99.90;;;;;;4938065;28;20188;-84
2024/03/27 05:43:12;;;;;;;4.73;4.17;;;7.80;99.90;;;;;;4935609;28;20271;-84
2024/03/27 05:45:37;;;;;;;9.37;5.33;;;8.20;99.90;;;;;;4936723;28;20722;-85
2024/03/27 05:48:03;;;;;;;5.90;4.83;;;8.60;99.90;;;;;;4938136;28;20232;-84
2024/03/27 05:50:29;;;;;;;5.33;4.83;;;8.30;99.90;;;;;;4937342;28;20189;-85
2024/03/27 05:52:54;;;;;;;6.10;4.80;;;8.20;99.90;;;;;;4933616;28;20515;-85
2024/03/27 05:55:20;;;;;;;7.37;4.83;;;8.10;99.90;;;;;;4935185;28;20215;-85
2024/03/27 05:57:45;;;;;;;6.13;5.00;;;8.60;99.90;;;;;;4935490;28;20208;-85
2024/03/27 06:00:12;;;;;;;10.07;4.93;;;8.60;99.90;;;;;;4934184;28;20292;-86
2024/03/27 06:02:37;;;;;;;7.68;5.32;;;8.40;99.90;;;;;;4936060;28;20588;-85
2024/03/27 06:05:04;;;;;;;6.43;5.60;;;8.60;99.90;;;;;;4932671;28;20421;-86
2024/03/27 06:07:30;;;;;;;8.85;5.20;;;8.70;99.90;;;;;;4935173;28;20206;-85
2024/03/27 06:09:56;;;;;;;8.00;5.40;;;8.30;99.90;;;;;;4934649;28;20438;-85
2024/03/27 06:12:21;;;;;;;8.00;5.80;;;8.80;99.90;;;;;;4939886;28;20185;-85
2024/03/27 06:14:47;;;;;;;7.37;5.77;;;8.80;99.90;;;;;;4935147;28;20214;-85
2024/03/27 06:17:12;;;;;;;8.07;4.97;;;8.40;99.90;;;;;;4939047;29;20224;-87
2024/03/27 06:19:38;;;;;;;6.40;4.97;;;9.20;99.90;;;;;;4930520;28;20186;-87
2024/03/27 06:22:03;;;;;;;8.10;5.33;;;9.10;99.90;;;;;;4932241;28;20191;-88
2024/03/27 06:24:29;;;;;;;5.63;4.93;;;8.90;99.90;;;;;;4898120;28;1178894;-88
2024/03/27 06:26:54;;;;;;;7.83;4.77;;;9.50;99.90;;;;;;4939739;28;20545;-87
2024/03/27 06:29:21;;;;;;;6.70;5.23;;;8.90;99.90;;;;;;4942743;29;20201;-87
2024/03/27 06:31:46;;;;;;;7.93;6.35;;;9.40;99.90;;;;;;4935528;28;20202;-86
2024/03/27 06:34:12;;;;;;;7.43;5.93;;;9.00;99.90;;;;;;4940479;29;20647;-88
2024/03/27 06:39:33;;;;;;;6.30;5.70;;;9.10;99.90;;;;;;4899065;29;20209;-87
2024/03/27 06:41:59;;;;;;;12.15;6.38;;;9.70;99.90;;;;;;4892818;29;20277;-87
2024/03/27 06:44:24;;;;;;;7.53;5.70;;;;;;;;;;4920975;28;20613;-87
2024/03/27 06:52:20;;;;;;;6.50;5.85;;;8.40;99.90;;;;;;4950970;28;20274;-85
2024/03/27 06:54:48;;;;;;;9.33;6.27;;;10.00;99.90;;;;;;4942040;29;20477;-85
2024/03/27 06:57:18;;;;;;;7.68;6.30;;;9.20;99.90;;;;;;4938332;29;20230;-85
2024/03/27 06:59:43;;;;;;;7.47;5.35;;;10.40;99.90;;;;;;4930122;29;20228;-87
2024/03/27 07:02:09;;;;;;;9.17;6.40;;;10.30;99.90;;;;;;4915727;29;20491;-86
2024/03/27 07:04:35;;;;;;;8.03;7.23;;;10.50;99.90;;;;;;4917404;29;20232;-86
2024/03/27 07:07:00;;;;;;;9.27;6.80;;;10.00;99.90;;;;;;4922731;29;20209;-85
2024/03/27 07:09:26;;;;;;;9.37;6.77;;;10.20;99.90;;;;;;4923317;29;20200;-85
2024/03/27 07:11:52;;;;;;;9.00;6.57;;;10.60;99.90;;;;;;4921802;29;20189;-87
2024/03/27 07:14:17;;;;;;;9.20;6.17;;;10.70;99.90;;;;;;4922848;29;20197;-85
2024/03/27 07:16:43;;;;;;;6.77;6.07;;;10.50;99.90;;;;;;4927934;29;20209;-85
2024/03/27 07:19:09;;;;;;;6.30;5.70;;;10.70;99.90;;;;;;4926408;29;20445;-84
2024/03/27 07:21:36;;;;;;;8.23;6.40;;;10.80;99.90;;;;;;4922781;29;20189;-87
2024/03/27 07:24:02;;;;;;;7.22;6.32;;;11.30;99.90;;;;;;4922416;29;20617;-86
2024/03/27 07:26:27;;;;;;;7.90;5.93;;;11.20;99.90;;;;;;4919973;29;20202;-87
2024/03/27 07:28:53;;;;;;;6.37;5.77;;;11.70;99.90;;;;;;4921271;29;20995;-85
2024/03/27 07:31:18;;;;;;;7.03;6.30;;;11.30;99.90;;;;;;4919763;29;20190;-89
2024/03/27 07:33:44;;;;;;;7.30;6.40;;;11.90;99.90;;;;;;4917839;29;20200;-88
2024/03/27 07:36:09;;;;;;;7.23;6.20;;;11.50;99.50;;;;;;4916866;29;20209;-88
2024/03/27 07:38:35;;;;;;;6.93;6.33;;;12.10;99.50;;;;;;4928003;29;20185;-88
2024/03/27 07:41:00;;;;;;;7.47;6.67;;;11.90;99.00;;;;;;4916256;29;20193;-86
2024/03/27 07:43:26;;;;;;;7.47;6.73;;;11.90;98.50;;;;;;4916946;29;20228;-88
2024/03/27 07:45:51;;;;;;;6.83;6.03;;;12.30;98.10;;;;;;4914696;29;20220;-88
2024/03/27 07:48:17;;;;;;;7.00;6.40;;;12.10;97.80;;;;;;4917115;29;20205;-88
2024/03/27 07:50:45;;;;;;;9.27;6.27;;;12.80;97.70;;;;;;4918747;29;20196;-87
2024/03/27 07:53:11;;;;;;;7.65;6.18;;;13.70;96.80;;;;;;4919700;29;20186;-86
2024/03/27 07:55:36;;;;;;;9.20;5.87;;;14.40;94.80;;;;;;4918088;29;20197;-87
2024/03/27 07:58:03;;;;;;;6.07;5.47;;;16.10;93.40;;;;;;4912567;29;20239;-88
2024/03/27 08:00:28;;;;;;;8.07;5.65;;;17.80;90.40;;;;;;4916182;29;20223;-85
2024/03/27 08:02:54;;;;;;;6.43;5.43;;;20.50;82.00;;;;;;4915348;29;20237;-87
2024/03/27 08:05:19;;;;;;;7.37;5.73;;;22.40;73.60;;;;;;4917294;29;20706;-88
2024/03/27 08:07:46;;;;;;;7.40;4.70;;;22.00;67.40;;;;;;4931349;29;20206;-87
2024/03/27 08:10:13;;;;;;;6.07;5.47;;;22.20;66.40;;;;;;4917695;29;20209;-88
2024/03/27 08:12:39;;;;;;;5.43;4.73;;;22.80;66.40;;;;;;4916255;29;20813;-89
2024/03/27 08:15:06;;;;;;;5.60;4.50;;;22.30;64.00;;;;;;4915015;29;20452;-88
2024/03/27 08:17:32;;;;;;;5.20;4.70;;;21.70;65.80;;;;;;4916125;29;20480;-89
2024/03/27 08:19:57;;;;;;;5.43;4.77;;;21.60;66.80;;;;;;4916039;29;20536;-89
2024/03/27 08:22:23;;;;;;;5.33;4.60;;;21.10;69.00;;;;;;4898621;29;20687;-87
2024/03/27 08:24:51;;;;;;;5.57;4.20;;;22.60;68.40;;;;;;4915137;29;20182;-85
2024/03/27 08:27:16;;;;;;;10.53;4.77;;;23.10;63.60;;;;;;4918811;29;20702;-86
2024/03/27 08:29:42;;;;;;;5.10;4.60;;;23.90;61.90;;;;;;4922264;29;20445;-85
2024/03/27 08:32:08;;;;;;;5.40;4.80;;;23.90;60.70;;;;;;4918331;29;20482;-86
2024/03/27 08:34:34;;;;;;;5.47;4.93;;;22.90;60.80;;;;;;4919017;29;20272;-84
2024/03/27 08:37:00;;;;;;;5.40;4.90;;;22.80;62.20;;;;;;4914766;29;20460;-84
2024/03/27 08:39:26;;;;;;;6.17;5.13;;;23.10;61.00;;;;;;4919016;29;20937;-86
2024/03/27 08:41:54;;;;;;;7.00;6.23;;;23.50;60.90;;;;;;4914267;29;20276;-85
2024/03/27 08:44:19;;;;;;;5.20;4.70;;;24.00;60.40;;;;;;4917994;29;20492;-83
2024/03/27 08:46:45;;;;;;;6.17;5.57;;;24.30;59.10;;;;;;4923160;29;20607;-82
2024/03/27 08:49:14;;;;;;;8.17;5.90;;;24.40;58.40;;;;;;4906115;29;20231;-85
2024/03/27 08:51:40;;;;;;;6.00;4.70;;;23.50;58.90;;;;;;4921034;29;20178;-83
2024/03/27 08:54:05;;;;;;;5.27;4.77;;;24.20;59.20;;;;;;4922573;29;20443;-83
2024/03/27 08:56:31;;;;;;;5.27;4.87;;;23.60;59.00;;;;;;4921415;29;20477;-82
2024/03/27 08:58:57;;;;;;;6.00;5.37;;;23.30;59.10;;;;;;4925415;29;20213;-83
2024/03/27 09:01:22;;;;;;;7.30;4.83;;;23.40;59.20;;;;;;4930176;29;20493;-84
2024/03/27 09:03:48;;;;;;;9.40;5.80;;;23.30;58.80;;;;;;4928898;29;20213;-83
2024/03/27 09:06:14;;;;;;;8.27;5.07;;;23.00;59.20;;;;;;4922590;29;20244;-83
2024/03/27 09:08:39;;;;;;;7.10;6.17;;;22.90;59.20;;;;;;4920822;29;20717;-82
2024/03/27 09:11:07;;;;;;;6.27;4.87;;;23.30;59.10;;;;;;4923596;29;20495;-83
2024/03/27 09:13:33;;;;;;;5.73;5.30;;;22.70;59.90;;;;;;4919539;29;20217;-83
2024/03/27 09:15:59;;;;;;;6.60;5.70;;;22.70;61.60;;;;;;4918519;29;20488;-85
2024/03/27 09:18:26;;;;;;;7.10;5.30;;;22.00;61.60;;;;;;4920550;29;20460;-85
2024/03/27 09:20:57;;;;;;;6.10;5.40;;;21.70;61.70;;;;;;4921872;29;20185;-85
2024/03/27 09:23:24;;;;;;;8.00;5.80;;;21.20;62.60;;;;;;4914470;29;20484;-87
2024/03/27 09:26:01;;;;;;;8.43;5.63;;;21.40;64.30;;;;;;4921585;29;20557;-85
2024/03/27 09:28:27;;;;;;;8.32;6.03;;;21.10;65.00;;;;;;4920500;29;20804;-84
2024/03/27 09:30:53;;;;;;;7.97;5.60;;;20.30;65.10;;;;;;4917908;29;20192;-82
2024/03/27 09:33:19;;;;;;;6.60;6.00;;;21.20;64.80;;;;;;4921783;29;20454;-82
2024/03/27 09:35:50;;;;;;;7.53;5.73;;;22.00;63.30;;;;;;4920745;29;20500;-82
2024/03/27 09:38:16;;;;;;;6.97;6.27;;;22.50;62.40;;;;;;4919492;29;21051;-83
2024/03/27 09:40:54;;;;;;;8.33;6.80;;;22.20;60.00;;;;;;4926049;29;20796;-82
2024/03/27 09:43:21;;;;;;;6.77;6.07;;;21.70;61.10;;;;;;4929920;29;20465;-83
2024/03/27 09:45:47;;;;;;;7.50;6.43;;;21.70;62.60;;;;;;4920777;29;20445;-84
2024/03/27 09:48:13;;;;;;;7.10;6.40;;;21.30;62.60;;;;;;4921971;29;20439;-83
2024/03/27 09:50:39;;;;;;;8.17;5.90;;;20.60;63.50;;;;;;4923499;29;20521;-83
2024/03/27 09:53:07;;;;;;;6.47;5.87;;;20.90;64.10;;;;;;4940554;29;20536;-84
2024/03/27 09:55:34;;;;;;;6.75;5.25;;;20.60;66.10;;;;;;4937106;29;20185;-85
2024/03/27 09:58:05;;;;;;;8.77;5.73;;;21.30;65.90;;;;;;4923450;29;20194;-83
2024/03/27 10:00:32;;;;;;;8.03;5.40;;;21.00;65.40;;;;;;4918218;29;21023;-83
2024/03/27 10:02:58;;;;;;;7.13;5.30;;;21.60;65.50;;;;;;4925439;29;20473;-83
2024/03/27 10:05:26;;;;;;;5.67;5.17;;;22.10;65.00;;;;;;4920812;29;20449;-84
2024/03/27 10:07:55;;;;;;;6.03;5.43;;;22.70;63.70;;;;;;4911657;29;20461;-85
2024/03/27 10:10:22;;;;;;;7.23;4.70;;;22.00;63.90;;;;;;4920407;29;20493;-84
2024/03/27 10:12:48;;;;;;;6.43;5.20;;;22.70;63.30;;;;;;4935055;29;20461;-85
2024/03/27 10:15:14;;;;;;;5.23;4.70;;;22.50;63.20;;;;;;4914523;29;20453;-84
2024/03/27 10:17:40;;;;;;;5.33;4.83;;;22.60;63.00;;;;;;4927058;29;20519;-83
2024/03/27 10:20:06;;;;;;;7.67;4.70;;;22.80;61.90;;;;;;4921523;29;20241;-83
2024/03/27 10:22:33;;;;;;;5.77;5.27;;;23.10;60.30;;;;;;4920421;29;20539;-84
2024/03/27 10:24:59;;;;;;;6.87;5.30;;;23.30;61.10;;;;;;4921412;29;20971;-84
2024/03/27 10:27:26;;;;;;;6.23;5.57;;;23.20;62.10;;;;;;4917352;29;20477;-84
2024/03/27 10:29:52;;;;;;;5.63;5.07;;;21.70;62.80;;;;;;4920611;29;20449;-85
2024/03/27 10:32:17;;;;;;;6.30;4.70;;;21.10;66.50;;;;;;4920230;29;20442;-85
2024/03/27 10:34:43;;;;;;;5.47;4.97;;;20.00;71.00;;;;;;4935773;29;20189;-85
2024/03/27 10:37:11;;;;;;;6.70;5.05;;;20.10;71.10;;;;;;4923846;29;20217;-84
2024/03/27 10:39:44;;;;;;;5.07;4.68;;;20.00;71.90;;;;;;4939466;29;20561;-85
2024/03/27 10:42:14;;;;;;;5.75;5.03;;;19.90;72.50;;;;;;4919557;29;20200;-85
2024/03/27 10:44:45;;;;;;;5.43;5.03;;;19.90;71.50;;;;;;4919496;29;20209;-85
2024/03/27 10:47:17;;;;;;;5.88;5.35;;;19.70;72.40;;;;;;4941272;29;20212;-86
2024/03/27 10:49:43;;;;;;;6.43;5.85;;;19.60;73.40;;;;;;4928453;29;20200;-84
2024/03/27 10:52:10;;;;;;;6.78;6.05;;;19.30;74.50;;;;;;4910189;29;20182;-84
2024/03/27 10:54:36;;;;;;;5.80;5.00;;;19.20;76.20;;;;;;4926414;29;20253;-84
2024/03/27 10:57:03;;;;;;;6.43;5.85;;;18.90;77.10;;;;;;4923858;29;20691;-84
2024/03/27 10:59:30;;;;;;;7.45;5.50;;;18.30;77.80;;;;;;4922850;29;20253;-85
2024/03/27 11:02:02;;;;;;;6.00;5.47;;;18.60;80.40;;;;;;4925631;29;20197;-85
2024/03/27 11:04:32;;;;;;;6.53;5.28;;;18.40;80.20;;;;;;4924789;29;20233;-85
2024/03/27 11:06:58;;;;;;;6.38;5.75;;;18.10;80.00;;;;;;4941096;29;20295;-85
2024/03/27 11:09:24;;;;;;;7.00;5.22;;;19.50;78.80;;;;;;4928477;29;20192;-86
2024/03/27 11:11:50;;;;;;;6.10;5.60;;;20.00;75.90;;;;;;4940887;29;20185;-84
2024/03/27 11:14:19;;;;;;;5.35;4.82;;;19.50;76.10;;;;;;4918624;29;20245;-84
2024/03/27 11:16:58;;;;;;;5.95;5.43;;;19.30;77.40;;;;;;4923472;29;20271;-84
2024/03/27 11:19:37;;;;;;;6.63;6.03;;;18.90;78.60;;;;;;4906630;29;20225;-84
2024/03/27 11:22:17;;;;;;;6.07;5.47;;;17.70;79.90;;;;;;4925451;29;20597;-84
2024/03/27 11:24:44;;;;;;;7.05;5.72;;;17.40;82.60;;;;;;4929173;29;20300;-83
2024/03/27 11:27:10;;;;;;;5.78;5.10;;;17.00;84.50;;;;;;4926930;29;20726;-82
2024/03/27 11:29:37;;;;;;;6.22;5.63;;;17.40;87.10;;;;;;4929579;29;20213;-83
2024/03/27 11:32:09;;;;;;;6.88;5.57;;;17.00;89.70;;;;;;4923316;29;20280;-89
2024/03/27 11:34:35;;;;;;;6.10;5.55;;;16.20;90.10;;;;;;4920714;29;20297;-83
2024/03/27 11:37:00;;;;;;;5.53;5.03;;;15.80;90.60;;;;;;4919733;29;20238;-84
2024/03/27 11:39:27;;;;;;;5.83;5.13;;;15.90;90.80;;;;;;4921959;29;20240;-86
2024/03/27 11:41:53;;;;;;;5.72;5.10;;;15.50;91.00;;;;;;4921797;29;20189;-83
2024/03/27 11:44:20;;;;;;;5.82;4.82;;;16.00;91.10;;;;;;4937503;29;20217;-83
2024/03/27 11:46:46;;;;;;;5.40;4.90;;;17.00;90.20;;;;;;4938199;29;20211;-84
2024/03/27 11:49:15;;;;;;;5.65;4.90;;;16.80;89.70;;;;;;4923229;29;20198;-85
2024/03/27 11:51:41;;;;;;;5.05;4.50;;;16.70;90.70;;;;;;4926304;29;20186;-83
2024/03/27 11:54:07;;;;;;;5.00;4.60;;;16.40;90.90;;;;;;4923837;29;20200;-84
2024/03/27 11:56:35;;;;;;;4.60;4.10;;;15.90;91.20;;;;;;4919259;29;20209;-83
2024/03/27 11:59:02;;;;;;;4.05;3.65;;;16.00;91.80;;;;;;4919822;29;20205;-84
2024/03/27 12:01:29;;;;;;;4.10;3.70;;;15.70;92.50;;;;;;4926036;29;20197;-84
2024/03/27 12:03:56;;;;;;;5.10;3.53;;;15.30;92.50;;;;;;4923498;29;20209;-89
2024/03/27 12:06:24;;;;;;;8.13;4.30;;;15.00;92.80;;;;;;4921976;29;20209;-87
2024/03/27 12:08:49;;;;;;;4.43;3.30;;;15.70;93.80;;;;;;4933309;29;20181;-88
2024/03/27 12:11:22;;;;;;;4.20;3.40;;;15.10;93.70;;;;;;4938680;29;20185;-84
2024/03/27 12:13:49;;;;;;;3.60;2.63;;;15.20;93.20;;;;;;4920880;29;20197;-85
2024/03/27 12:16:15;;;;;;;2.60;2.20;;;15.50;93.00;;;;;;4919413;29;20349;-84
2024/03/27 12:18:44;;;;;;;3.55;2.70;;;15.00;92.70;;;;;;4918388;29;20202;-86
2024/03/27 12:21:15;;;;;;;2.33;2.13;;;15.30;93.10;;;;;;4914681;29;20194;-86
2024/03/27 12:23:41;;;;;;;2.97;1.77;;;15.20;92.40;;;;;;4918740;29;20216;-86
2024/03/27 12:26:15;;;;;;;4.63;2.05;;;15.20;91.70;;;;;;4917502;29;20214;-86
2024/03/27 12:28:43;;;;;;;2.30;1.90;;;15.20;91.90;;;;;;4914164;29;20744;-85
2024/03/27 12:31:09;;;;;;;2.20;2.00;;;15.20;92.10;;;;;;4913186;29;20185;-85
2024/03/27 12:33:35;;;;;;;1.92;1.52;;;15.80;91.70;;;;;;4918759;29;20236;-84
2024/03/27 12:36:01;;;;;;;1.17;1.08;;;15.20;90.70;;;;;;4915175;29;20777;-87
2024/03/27 12:38:27;;;;;;;1.30;1.10;;;15.30;90.30;;;;;;4918700;29;20202;-86
2024/03/27 12:40:52;;;;;;;1.73;1.13;;;16.00;90.30;;;;;;4916700;29;20453;-85
2024/03/27 12:43:18;;;;;;;2.10;1.20;;;15.90;89.40;;;;;;4915496;29;20344;-82
2024/03/27 12:45:44;;;;;;;1.47;1.33;;;15.40;87.10;;;;;;4921474;29;20664;-84
2024/03/27 12:48:19;;;;;;;2.00;1.90;;;15.00;87.50;;;;;;4935446;29;20189;-82
2024/03/27 12:50:49;;;;;;;2.13;1.30;;;14.70;88.90;;;;;;4915368;29;21482;-83
2024/03/27 12:53:14;;;;;;;1.08;0.98;;;15.10;90.20;;;;;;4919112;29;20198;-83
2024/03/27 12:55:40;;;;;;;1.60;1.20;;;15.10;90.10;;;;;;4919363;29;20200;-82
2024/03/27 12:58:07;;;;;;;2.55;1.30;;;15.20;90.20;;;;;;4918350;29;20193;-82